createdAt,value
2017-03-28T18:40:53.546Z,1019.18
2017-03-28T18:41:54.231Z,1019.15
2017-03-28T18:42:54.911Z,1019.19
2017-03-28T18:43:55.617Z,1019.13
2017-03-28T18:44:56.285Z,1019.18
2017-03-28T18:45:57.003Z,1019.15
2017-03-28T18:46:57.685Z,1019.16
2017-03-28T18:47:58.357Z,1019.22
2017-03-28T18:48:59.028Z,1019.2
2017-03-28T18:49:59.966Z,1019.2
2017-03-28T18:51:00.626Z,1019.15
2017-03-28T18:52:01.308Z,1019.21
2017-03-28T18:53:01.979Z,1019.15
2017-03-28T18:54:02.627Z,1019.17
2017-03-28T18:55:03.319Z,1019.15
2017-03-28T18:56:03.990Z,1019.11
2017-03-28T18:57:04.656Z,1019.19
2017-03-28T18:58:05.336Z,1019.14
2017-03-28T18:59:06.011Z,1019.16
2017-03-28T19:00:06.700Z,1019.16
2017-03-28T19:01:07.362Z,1019.14
2017-03-28T19:02:08.011Z,1019.17
2017-03-28T19:03:08.677Z,1019.15
2017-03-28T19:04:09.369Z,1019.18
2017-03-28T19:05:10.045Z,1019.14
2017-03-28T19:06:10.725Z,1019.15
2017-03-28T19:07:11.388Z,1019.16
2017-03-28T19:08:12.072Z,1019.17
2017-03-28T19:09:12.792Z,1019.17
2017-03-28T19:10:13.453Z,1019.15
2017-03-28T19:11:14.128Z,1019.17
2017-03-28T19:12:14.802Z,1019.16
2017-03-28T19:13:15.492Z,1019.18
2017-03-28T19:14:16.180Z,1019.16
2017-03-28T19:15:16.908Z,1019.18
2017-03-28T19:16:17.595Z,1019.15
2017-03-28T19:17:18.273Z,1019.19
2017-03-28T19:18:18.979Z,1019.17
2017-03-28T19:19:19.671Z,1019.15
2017-03-28T19:20:20.345Z,1019.13
2017-03-28T19:21:21.012Z,1019.1
2017-03-28T19:22:21.687Z,1019.11
2017-03-28T19:23:22.397Z,1019.12
2017-03-28T19:24:23.092Z,1019.05
2017-03-28T19:25:23.809Z,1019.11
2017-03-28T19:26:24.497Z,1019.12
2017-03-28T19:27:25.586Z,1019.09
2017-03-28T19:28:26.274Z,1019.09
2017-03-28T19:29:27.639Z,1019.08
2017-03-28T19:30:29.786Z,1019.04
2017-03-28T19:31:31.675Z,1019.07
2017-03-28T19:32:32.828Z,1019.04
2017-03-28T19:33:33.504Z,1019.04
2017-03-28T19:34:34.320Z,1019.07
2017-03-28T19:35:35.098Z,1019.05
2017-03-28T19:36:35.821Z,1019.04
2017-03-28T19:37:36.548Z,1019.02
2017-03-28T19:38:37.233Z,1019.06
2017-03-28T19:39:38.035Z,1019.05
2017-03-28T19:40:38.734Z,1019.05
2017-03-28T19:41:39.403Z,1019.03
2017-03-28T19:42:40.569Z,1019.08
2017-03-28T19:43:41.270Z,1019.07
2017-03-28T19:44:41.956Z,1019.07
2017-03-28T19:45:43.310Z,1019.07
2017-03-28T19:46:45.448Z,1019.05
2017-03-28T19:47:46.293Z,1019.05
2017-03-28T19:48:46.995Z,1019.06
2017-03-28T19:49:47.706Z,1019.07
2017-03-28T19:50:48.488Z,1019.06
2017-03-28T19:51:49.250Z,1019.11
2017-03-28T19:52:50.009Z,1019.08
2017-03-28T19:53:50.759Z,1019.09
2017-03-28T19:54:51.445Z,1019.08
2017-03-28T19:55:52.155Z,1019.08
2017-03-28T19:56:52.895Z,1019.06
2017-03-28T19:57:54.388Z,1019.09
2017-03-28T19:58:55.111Z,1019.05
2017-03-28T19:59:55.799Z,1019.08
2017-03-28T20:00:57.482Z,1019.07
2017-03-28T20:01:59.242Z,1019.08
2017-03-28T20:02:59.952Z,1019.02
2017-03-28T20:04:00.720Z,1019.07
2017-03-28T20:05:01.477Z,1019.07
2017-03-28T20:06:02.149Z,1019.06
2017-03-28T20:07:02.924Z,1019.05
2017-03-28T20:08:03.673Z,1019.08
2017-03-28T20:09:04.366Z,1019.08
2017-03-28T20:10:05.046Z,1019.1
2017-03-28T20:11:05.808Z,1019.12
2017-03-28T20:12:06.500Z,1019.14
2017-03-28T20:13:07.195Z,1019.16
2017-03-28T20:14:07.882Z,1019.11
2017-03-28T20:15:08.572Z,1019.11
2017-03-28T20:16:09.334Z,1019.16
2017-03-28T20:17:10.134Z,1019.15
2017-03-28T20:18:10.865Z,1019.14
2017-03-28T20:19:11.560Z,1019.13
2017-03-28T20:20:12.270Z,1019.16
2017-03-28T20:21:12.946Z,1019.13
2017-03-28T20:22:13.704Z,1019.12
2017-03-28T20:23:14.389Z,1019.15
2017-03-28T20:24:15.110Z,1019.16
2017-03-28T20:25:15.808Z,1019.16
2017-03-28T20:26:16.551Z,1019.13
2017-03-28T20:27:17.425Z,1019.13
2017-03-28T20:28:18.566Z,1019.13
2017-03-28T20:29:19.280Z,1019.13
2017-03-28T20:30:19.974Z,1019.13
2017-03-28T20:31:20.700Z,1019.12
2017-03-28T20:32:22.446Z,1019.12
2017-03-28T20:33:24.178Z,1019.13
2017-03-28T20:34:25.190Z,1019.05
2017-03-28T20:35:26.713Z,1019.11
2017-03-28T20:36:27.810Z,1019.12
2017-03-28T20:37:28.827Z,1019.07
2017-03-28T20:38:29.785Z,1019.08
2017-03-28T20:39:30.478Z,1019.04
2017-03-28T20:40:31.155Z,1019.1
2017-03-28T20:41:31.852Z,1019.11
2017-03-28T20:42:32.668Z,1019.03
2017-03-28T20:43:33.418Z,1019.05
2017-03-28T20:44:34.092Z,1019.06
2017-03-28T20:45:36.345Z,1019.02
2017-03-28T20:46:37.450Z,1018.98
2017-03-28T20:47:38.138Z,1019.05
2017-03-28T20:48:39.460Z,1019.05
2017-03-28T20:49:40.957Z,1019.06
2017-03-28T20:50:41.808Z,1019.01
2017-03-28T20:51:42.842Z,1019.02
2017-03-28T20:52:43.507Z,1019.01
2017-03-28T20:53:44.855Z,1019.05
2017-03-28T20:54:45.530Z,1019.02
2017-03-28T20:55:47.700Z,1019.01
2017-03-28T20:56:52.411Z,1019.03
2017-03-28T20:57:53.213Z,1018.97
2017-03-28T20:58:53.886Z,1019.03
2017-03-28T20:59:54.674Z,1019.03
2017-03-28T21:00:55.738Z,1019.01
2017-03-28T21:01:56.429Z,1018.96
2017-03-28T21:02:57.515Z,1019
2017-03-28T21:03:58.023Z,1019
2017-03-28T21:04:58.737Z,1018.98
2017-03-28T21:06:00.888Z,1018.99
2017-03-28T21:07:01.563Z,1019.03
2017-03-28T21:08:03.425Z,1018.99
2017-03-28T21:09:04.212Z,1019
2017-03-28T21:10:05.172Z,1019
2017-03-28T21:11:05.904Z,1019
2017-03-28T21:12:06.623Z,1018.99
2017-03-28T21:13:07.345Z,1018.98
2017-03-28T21:14:08.033Z,1019.02
2017-03-28T21:15:09.799Z,1019
2017-03-28T21:16:09.515Z,1018.99
2017-03-28T21:17:10.207Z,1018.99
2017-03-28T21:18:11.084Z,1019.01
2017-03-28T21:19:11.698Z,1018.99
2017-03-28T21:20:12.381Z,1018.99
2017-03-28T21:21:13.102Z,1019.01
2017-03-28T21:22:13.907Z,1019.03
2017-03-28T21:23:14.574Z,1019.02
2017-03-28T21:24:15.316Z,1019.03
2017-03-28T21:25:16.000Z,1019.04
2017-03-28T21:26:16.702Z,1019.02
2017-03-28T21:27:17.379Z,1018.99
2017-03-28T21:28:18.113Z,1019.01
2017-03-28T21:29:18.815Z,1019.01
2017-03-28T21:30:19.709Z,1019.03
2017-03-28T21:31:21.241Z,1019.04
2017-03-28T21:32:22.247Z,1019.04
